Poronajsk, Russia
Current Conditions -  °F | °C
As of 11:00 PM on Thursday 18 Dec 2014 (Local Time) from UHSS Reporting Station
Broken Clouds Broken Clouds  
Wind Chill: 19°   Ceiling: 4000
Heat Index: 25°   Visibility: 6mi
Dew Point: 19°   Wind: 4mph
Humidity: 80%   Direction: 50°NE
Pressure: 30.03"   Gusts: NA
Location:  49.22°N, 143.12°E
Report Text: UHSS 181200Z 05002MPS 9999 BKN040CB M04/M07 Q1017 NOSIG RMKQFE761/1015 01820335
Loading
Personal Weather Stations






























Interactive Weather Map New forecast layout! Learn more

10-Day Weather Forecast

Advertisements
Track Severe Weather on mobile